createdAt,value
2023-12-04T00:00:57.471Z,16.27
2023-12-04T00:03:59.464Z,13.02
2023-12-04T00:07:01.213Z,15.43
2023-12-04T00:10:03.001Z,13.53
2023-12-04T00:13:04.733Z,14.50
2023-12-04T00:16:07.276Z,11.35
2023-12-04T00:19:09.089Z,15.43
2023-12-04T00:22:11.097Z,15.17
2023-12-04T00:25:12.762Z,18.80
2023-12-04T00:28:14.536Z,16.50
2023-12-04T00:31:16.224Z,16.45
2023-12-04T00:34:17.957Z,13.60
2023-12-04T00:37:19.748Z,14.90
2023-12-04T00:40:21.451Z,10.73
2023-12-04T00:43:23.108Z,12.65
2023-12-04T00:46:24.826Z,12.77
2023-12-04T00:49:27.145Z,12.60
2023-12-04T00:52:29.860Z,12.23
2023-12-04T00:55:31.834Z,15.23
2023-12-04T00:58:33.482Z,13.95
2023-12-04T01:01:36.391Z,13.75
2023-12-04T01:04:41.551Z,12.50
2023-12-04T01:07:43.318Z,13.83
2023-12-04T01:10:44.966Z,13.27
2023-12-04T01:13:47.099Z,15.95
2023-12-04T01:16:48.804Z,13.02
2023-12-04T01:19:50.650Z,14.60
2023-12-04T01:22:52.389Z,13.63
2023-12-04T01:25:54.050Z,15.97
2023-12-04T01:28:55.829Z,13.30
2023-12-04T01:31:58.798Z,13.77
2023-12-04T01:35:00.607Z,12.13
2023-12-04T01:38:02.404Z,14.73
2023-12-04T01:41:04.348Z,12.10
2023-12-04T01:44:06.255Z,14.40
2023-12-04T01:47:08.533Z,17.92
2023-12-04T01:50:11.021Z,16.27
2023-12-04T01:53:13.020Z,15.03
2023-12-04T01:56:16.143Z,13.50
2023-12-04T01:59:18.080Z,13.32
2023-12-04T02:02:21.390Z,11.10
2023-12-04T02:05:23.879Z,11.75
2023-12-04T02:08:25.992Z,12.43
2023-12-04T02:11:27.710Z,10.70
2023-12-04T02:14:29.441Z,12.00
2023-12-04T02:17:33.783Z,9.75
2023-12-04T02:20:36.124Z,12.63
2023-12-04T02:23:37.889Z,14.50
2023-12-04T02:26:50.011Z,11.90
2023-12-04T02:30:00.438Z,11.48
2023-12-04T02:33:04.204Z,12.18
2023-12-04T02:36:07.509Z,11.43
2023-12-04T02:39:09.338Z,9.97
2023-12-04T02:42:14.836Z,14.93
2023-12-04T02:45:16.495Z,12.73
2023-12-04T02:48:18.203Z,12.15
2023-12-04T02:51:19.917Z,11.52
2023-12-04T02:54:21.549Z,12.83
2023-12-04T02:57:23.211Z,13.20
2023-12-04T03:00:24.955Z,10.43
2023-12-04T03:03:27.401Z,13.15
2023-12-04T03:06:29.408Z,14.82
2023-12-04T03:09:47.846Z,11.70
2023-12-04T03:12:51.303Z,10.33
2023-12-04T03:15:53.054Z,13.13
2023-12-04T03:18:54.790Z,13.57
2023-12-04T03:21:56.544Z,12.55
2023-12-04T03:24:58.221Z,14.03
2023-12-04T03:27:59.933Z,13.43
2023-12-04T03:31:01.698Z,12.05
2023-12-04T03:34:03.890Z,12.30
2023-12-04T03:37:05.768Z,11.50
2023-12-04T03:40:08.090Z,11.07
2023-12-04T03:43:09.773Z,11.00
2023-12-04T03:46:11.570Z,12.50
2023-12-04T03:49:13.353Z,13.77
2023-12-04T03:52:15.156Z,16.70
2023-12-04T03:55:17.069Z,15.77
2023-12-04T03:58:18.956Z,11.67
2023-12-04T04:01:20.662Z,15.20
2023-12-04T04:04:22.420Z,32.85
2023-12-04T04:07:24.201Z,18.92
2023-12-04T04:10:25.992Z,17.80
2023-12-04T04:13:27.723Z,36.27
2023-12-04T04:16:29.369Z,23.20
2023-12-04T04:19:31.240Z,18.38
2023-12-04T04:22:35.644Z,22.75
2023-12-04T04:25:37.343Z,16.30
2023-12-04T04:28:39.200Z,15.20
2023-12-04T04:31:40.933Z,15.90
2023-12-04T04:34:42.708Z,12.50
2023-12-04T04:37:46.009Z,14.60
2023-12-04T04:40:48.494Z,12.77
2023-12-04T04:43:50.153Z,11.53
2023-12-04T04:46:51.922Z,12.80
2023-12-04T04:49:53.684Z,12.27
2023-12-04T04:52:55.453Z,14.10
2023-12-04T04:55:57.169Z,12.67
2023-12-04T04:59:00.689Z,12.93
2023-12-04T05:02:02.401Z,15.48
2023-12-04T05:05:05.563Z,18.95
2023-12-04T05:08:07.343Z,16.33
2023-12-04T05:11:09.097Z,15.77
2023-12-04T05:14:10.795Z,14.70
2023-12-04T05:17:12.546Z,14.02
2023-12-04T05:20:14.361Z,13.95
2023-12-04T05:23:16.134Z,14.95
2023-12-04T05:26:17.806Z,22.03
2023-12-04T05:29:19.489Z,19.60
2023-12-04T05:32:21.836Z,19.98
2023-12-04T05:35:23.620Z,17.33
2023-12-04T05:38:25.305Z,14.20
2023-12-04T05:41:27.041Z,18.30
2023-12-04T05:44:28.861Z,18.03
2023-12-04T05:47:30.534Z,20.23
2023-12-04T05:50:32.741Z,21.80
2023-12-04T05:53:34.394Z,22.00
2023-12-04T05:56:36.144Z,10.83
2023-12-04T05:59:37.953Z,13.97
2023-12-04T06:02:43.684Z,11.93
2023-12-04T06:05:45.674Z,13.25
2023-12-04T06:08:47.869Z,13.38
2023-12-04T06:11:49.552Z,15.00
2023-12-04T06:14:52.028Z,14.77
2023-12-04T06:17:53.776Z,13.77
2023-12-04T06:20:55.481Z,15.93
2023-12-04T06:23:57.563Z,14.13
2023-12-04T06:26:59.624Z,13.90
2023-12-04T06:30:01.561Z,15.60
2023-12-04T06:33:03.991Z,17.30
2023-12-04T06:36:07.842Z,15.85
2023-12-04T06:39:13.757Z,15.15
2023-12-04T06:42:15.875Z,15.97
2023-12-04T06:45:18.248Z,13.60
2023-12-04T06:48:20.107Z,15.40
2023-12-04T06:51:22.044Z,13.73
2023-12-04T06:54:23.803Z,12.70
2023-12-04T06:57:25.542Z,14.07
2023-12-04T07:00:27.604Z,14.40
2023-12-04T07:03:30.319Z,17.52
2023-12-04T07:06:32.039Z,19.05
2023-12-04T07:09:35.225Z,19.15
2023-12-04T07:12:37.150Z,15.73
2023-12-04T07:15:38.954Z,18.63
2023-12-04T07:18:40.741Z,21.63
2023-12-04T07:21:42.668Z,18.38
2023-12-04T07:24:44.373Z,16.90
2023-12-04T07:27:47.009Z,17.13
2023-12-04T07:30:48.769Z,17.80
2023-12-04T07:33:50.534Z,16.85
2023-12-04T07:36:52.994Z,17.48
2023-12-04T07:39:54.833Z,15.95
2023-12-04T07:42:56.668Z,16.63
2023-12-04T07:45:59.147Z,14.90
2023-12-04T07:49:01.130Z,13.38
2023-12-04T07:52:02.938Z,18.75
2023-12-04T07:55:05.454Z,15.13
2023-12-04T07:58:07.205Z,14.97
2023-12-04T08:01:09.675Z,13.77
2023-12-04T08:04:11.557Z,13.75
2023-12-04T08:07:13.392Z,12.80
2023-12-04T08:10:15.498Z,13.50
2023-12-04T08:13:17.784Z,10.53
2023-12-04T08:16:21.438Z,9.77
2023-12-04T08:19:24.732Z,10.30
2023-12-04T08:22:26.549Z,10.43
2023-12-04T08:25:28.362Z,10.95
2023-12-04T08:28:30.099Z,13.35
2023-12-04T08:31:31.852Z,12.77
2023-12-04T08:34:34.488Z,10.70
2023-12-04T08:37:36.742Z,9.60
2023-12-04T08:40:41.125Z,9.30
2023-12-04T08:43:42.814Z,10.80
2023-12-04T08:46:45.613Z,9.87
2023-12-04T08:49:49.453Z,10.40
2023-12-04T08:52:51.744Z,10.02
2023-12-04T08:55:54.136Z,9.80
2023-12-04T08:58:56.038Z,9.80
2023-12-04T09:01:57.934Z,10.47
2023-12-04T09:05:01.097Z,10.27
2023-12-04T09:14:13.467Z,12.67
2023-12-04T09:17:17.638Z,11.17
2023-12-04T09:20:20.898Z,12.02
2023-12-04T09:23:22.708Z,14.02
2023-12-04T09:26:24.582Z,13.32
2023-12-04T09:29:26.654Z,12.90
2023-12-04T09:32:28.462Z,15.27
2023-12-04T09:35:30.640Z,14.18
2023-12-04T09:38:32.478Z,14.40
2023-12-04T09:41:34.898Z,13.88
2023-12-04T09:44:38.071Z,13.40
2023-12-04T09:47:40.435Z,12.77
2023-12-04T09:50:42.674Z,13.18
2023-12-04T09:53:44.509Z,13.73
2023-12-04T09:56:46.431Z,12.85
2023-12-04T09:59:51.396Z,13.67
2023-12-04T10:02:54.306Z,10.93
2023-12-04T10:05:56.251Z,12.73
2023-12-04T10:09:00.665Z,10.98
2023-12-04T10:12:03.484Z,9.68
2023-12-04T10:15:10.424Z,13.00
2023-12-04T10:18:28.924Z,9.43
2023-12-04T10:21:35.014Z,7.80
2023-12-04T10:24:38.781Z,11.88
2023-12-04T10:27:40.567Z,12.48
2023-12-04T10:30:49.824Z,12.13
2023-12-04T10:33:51.620Z,11.60
2023-12-04T10:36:54.270Z,11.55
2023-12-04T10:39:56.029Z,10.57
2023-12-04T10:43:18.244Z,10.98
2023-12-04T10:46:21.614Z,12.43
2023-12-04T10:49:23.733Z,11.70
2023-12-04T10:52:25.599Z,12.13
2023-12-04T10:55:27.368Z,12.23
2023-12-04T10:58:29.949Z,11.98
2023-12-04T11:01:33.159Z,16.30
2023-12-04T11:04:36.926Z,13.50
2023-12-04T11:08:12.763Z,17.80
2023-12-04T11:11:08.899Z,20.30
2023-12-04T11:14:12.652Z,13.98
2023-12-04T11:17:15.866Z,15.33
2023-12-04T11:20:24.288Z,15.77
2023-12-04T11:23:26.878Z,15.90
2023-12-04T11:26:29.371Z,15.68
2023-12-04T11:29:32.512Z,14.77
2023-12-04T11:32:45.669Z,13.47
2023-12-04T11:35:48.576Z,15.50
2023-12-04T11:38:50.633Z,14.90
2023-12-04T11:41:52.644Z,15.60
2023-12-04T11:44:59.888Z,14.10
2023-12-04T11:48:01.651Z,15.93
2023-12-04T11:51:03.589Z,15.37
2023-12-04T11:54:06.120Z,17.02
2023-12-04T11:57:10.939Z,14.23
2023-12-04T12:00:15.419Z,15.07
2023-12-04T12:03:22.948Z,15.23
2023-12-04T12:06:26.188Z,14.27
2023-12-04T12:09:29.386Z,16.13
2023-12-04T12:12:32.984Z,16.63
2023-12-04T12:15:35.541Z,17.65
2023-12-04T12:18:37.576Z,18.30
2023-12-04T12:21:39.768Z,16.37
2023-12-04T12:24:41.569Z,20.75
2023-12-04T12:27:44.692Z,15.88
2023-12-04T12:30:46.812Z,17.63
2023-12-04T12:33:48.671Z,17.70
2023-12-04T12:36:50.847Z,17.30
2023-12-04T12:39:53.177Z,13.57
2023-12-04T12:43:06.765Z,17.70
2023-12-04T12:46:09.581Z,16.20
2023-12-04T12:49:16.577Z,16.90
2023-12-04T12:52:21.045Z,14.83
2023-12-04T12:55:26.422Z,15.05
2023-12-04T12:58:29.712Z,15.48
2023-12-04T13:01:32.694Z,16.77
2023-12-04T13:04:44.746Z,14.23
2023-12-04T13:07:47.871Z,13.83
2023-12-04T13:10:51.988Z,16.83
2023-12-04T13:13:54.088Z,13.35
2023-12-04T13:16:57.053Z,14.63
2023-12-04T13:19:59.549Z,15.40
2023-12-04T13:23:04.421Z,19.00
2023-12-04T13:26:06.832Z,16.65
2023-12-04T13:29:09.110Z,13.43
2023-12-04T13:32:10.933Z,14.30
2023-12-04T13:35:12.754Z,14.63
2023-12-04T13:38:18.783Z,19.23
2023-12-04T13:41:44.048Z,17.42
2023-12-04T13:44:45.759Z,15.48
2023-12-04T13:47:47.522Z,17.70
2023-12-04T13:50:51.343Z,15.27
2023-12-04T13:53:58.502Z,15.43
2023-12-04T13:57:05.103Z,16.48
2023-12-04T14:00:07.428Z,16.20
2023-12-04T14:03:09.593Z,14.27
2023-12-04T14:06:12.283Z,16.00
2023-12-04T14:09:17.679Z,14.00
2023-12-04T14:12:19.671Z,16.70
2023-12-04T14:15:21.607Z,16.65
2023-12-04T14:18:24.589Z,17.15
2023-12-04T14:21:26.291Z,16.77
2023-12-04T14:24:29.008Z,18.43
2023-12-04T14:27:30.674Z,20.60
2023-12-04T14:30:32.434Z,16.10
2023-12-04T14:33:34.617Z,17.40
2023-12-04T14:36:36.688Z,16.47
2023-12-04T14:39:38.344Z,16.13
2023-12-04T14:42:40.032Z,15.65
2023-12-04T14:45:41.796Z,15.18
2023-12-04T14:48:43.655Z,16.48
2023-12-04T14:51:49.553Z,15.00
2023-12-04T14:55:09.608Z,15.47
2023-12-04T14:58:17.282Z,13.95
2023-12-04T15:01:45.119Z,16.15
2023-12-04T15:04:49.728Z,17.08
2023-12-04T15:08:30.056Z,15.10
2023-12-04T15:11:50.489Z,16.70
2023-12-04T15:15:04.543Z,16.02
2023-12-04T15:18:24.949Z,15.40
2023-12-04T15:21:26.926Z,19.98
2023-12-04T15:24:28.813Z,16.13
2023-12-04T15:27:30.682Z,16.70
2023-12-04T15:30:32.571Z,15.63
2023-12-04T15:33:34.552Z,14.60
2023-12-04T15:36:36.297Z,16.38
2023-12-04T15:39:38.006Z,15.50
2023-12-04T15:42:39.880Z,15.37
2023-12-04T15:45:41.756Z,17.83
2023-12-04T15:48:43.653Z,15.75
2023-12-04T15:51:45.463Z,14.32
2023-12-04T15:54:48.169Z,16.43
2023-12-04T15:57:56.242Z,18.87
2023-12-04T16:00:58.505Z,17.35
2023-12-04T16:04:00.556Z,17.45
2023-12-04T16:07:03.490Z,15.55
2023-12-04T16:10:07.968Z,17.00
2023-12-04T16:13:10.904Z,16.60
2023-12-04T16:16:13.071Z,20.58
2023-12-04T16:19:15.359Z,15.82
2023-12-04T16:22:17.557Z,15.77
2023-12-04T16:25:19.782Z,20.30
2023-12-04T16:28:23.449Z,19.47
2023-12-04T16:31:25.116Z,18.77
2023-12-04T16:34:26.924Z,18.00
2023-12-04T16:37:29.710Z,20.63
2023-12-04T16:40:31.688Z,20.87
2023-12-04T16:43:33.331Z,18.87
2023-12-04T16:46:35.084Z,18.63
2023-12-04T16:49:36.977Z,18.40
2023-12-04T16:52:39.527Z,18.10
2023-12-04T16:55:41.193Z,20.50
2023-12-04T16:58:43.080Z,17.17
2023-12-04T17:01:44.829Z,19.88
2023-12-04T17:04:46.962Z,18.75
2023-12-04T17:07:48.709Z,16.52
2023-12-04T17:10:50.474Z,17.77
2023-12-04T17:13:52.290Z,18.70
2023-12-04T17:16:54.024Z,16.98
2023-12-04T17:19:56.512Z,17.50
2023-12-04T17:22:58.436Z,18.58
2023-12-04T17:26:00.144Z,21.07
2023-12-04T17:29:02.257Z,17.87
2023-12-04T17:32:04.577Z,20.17
2023-12-04T17:35:07.297Z,20.33
2023-12-04T17:38:09.034Z,19.33
2023-12-04T17:41:14.045Z,18.93
2023-12-04T17:44:15.790Z,18.77
2023-12-04T17:47:17.803Z,19.15
2023-12-04T17:50:20.009Z,18.73
2023-12-04T17:53:21.738Z,19.48
2023-12-04T17:56:23.390Z,19.33
2023-12-04T17:59:25.146Z,15.73
2023-12-04T18:02:27.254Z,17.73
2023-12-04T18:05:28.985Z,21.75
2023-12-04T18:08:30.788Z,21.02
2023-12-04T18:11:32.560Z,22.67
2023-12-04T18:14:34.782Z,20.37
2023-12-04T18:17:42.797Z,19.17
2023-12-04T18:20:47.747Z,21.23
2023-12-04T18:23:50.437Z,16.17
2023-12-04T18:26:52.460Z,20.93
2023-12-04T18:29:54.835Z,21.03
2023-12-04T18:32:59.798Z,20.63
2023-12-04T18:36:06.095Z,19.67
2023-12-04T18:39:09.419Z,20.92
2023-12-04T18:42:11.770Z,18.73
2023-12-04T18:45:14.141Z,20.30
2023-12-04T18:48:21.258Z,20.00
2023-12-04T18:51:23.345Z,23.48
2023-12-04T18:54:25.221Z,21.30
2023-12-04T18:57:26.947Z,22.97
2023-12-04T19:00:29.830Z,20.77
2023-12-04T19:03:31.861Z,27.67
2023-12-04T19:06:33.770Z,22.35
2023-12-04T19:09:35.516Z,19.70
2023-12-04T19:12:37.246Z,23.57
2023-12-04T19:15:39.014Z,22.87
2023-12-04T19:18:40.915Z,23.25
2023-12-04T19:21:42.760Z,25.17
2023-12-04T19:24:44.625Z,23.08
2023-12-04T19:27:49.078Z,22.07
2023-12-04T19:30:50.837Z,22.20
2023-12-04T19:33:53.021Z,20.10
2023-12-04T19:36:54.856Z,22.27
2023-12-04T19:39:56.643Z,22.65
2023-12-04T19:42:59.234Z,21.67
2023-12-04T19:46:04.083Z,20.50
2023-12-04T19:49:05.911Z,18.88
2023-12-04T19:52:07.614Z,20.33
2023-12-04T19:55:09.777Z,16.83
2023-12-04T19:58:11.551Z,23.03
2023-12-04T20:01:24.508Z,23.90
2023-12-04T20:04:28.838Z,21.23
2023-12-04T20:07:31.539Z,22.40
2023-12-04T20:10:34.960Z,25.25
2023-12-04T20:13:37.108Z,23.97
2023-12-04T20:16:38.771Z,21.90
2023-12-04T20:19:43.829Z,27.98
2023-12-04T20:22:45.501Z,21.83
2023-12-04T20:25:47.136Z,23.65
2023-12-04T20:28:49.932Z,24.23
2023-12-04T20:31:51.796Z,27.30
2023-12-04T20:34:53.439Z,23.48
2023-12-04T20:37:55.333Z,22.80
2023-12-04T20:40:57.021Z,21.15
2023-12-04T20:43:58.652Z,21.80
2023-12-04T20:47:01.248Z,24.37
2023-12-04T20:50:04.142Z,23.92
2023-12-04T20:53:06.149Z,23.55
2023-12-04T20:56:08.463Z,21.40
2023-12-04T20:59:11.698Z,23.90
2023-12-04T21:02:13.464Z,20.80
2023-12-04T21:05:15.290Z,21.48
2023-12-04T21:08:17.164Z,22.63
2023-12-04T21:11:19.562Z,24.23
2023-12-04T21:14:21.297Z,17.37
2023-12-04T21:17:23.084Z,25.50
2023-12-04T21:20:26.509Z,24.00
2023-12-04T21:23:28.296Z,25.02
2023-12-04T21:26:29.989Z,25.48
2023-12-04T21:29:31.688Z,22.30
2023-12-04T21:32:33.530Z,23.97
2023-12-04T21:35:36.861Z,22.65
2023-12-04T21:38:38.869Z,24.30
2023-12-04T21:41:40.583Z,23.08
2023-12-04T21:44:42.404Z,25.90
2023-12-04T21:47:44.102Z,23.93
2023-12-04T21:50:45.886Z,25.17
2023-12-04T21:53:47.642Z,25.98
2023-12-04T21:56:51.196Z,23.42
2023-12-04T21:59:52.889Z,25.50
2023-12-04T22:02:54.582Z,18.43
2023-12-04T22:05:57.352Z,24.10
2023-12-04T22:08:59.115Z,22.17
2023-12-04T22:12:01.156Z,25.63
2023-12-04T22:15:02.977Z,24.43
2023-12-04T22:18:04.993Z,27.67
2023-12-04T22:21:07.700Z,20.52
2023-12-04T22:24:09.424Z,27.88
2023-12-04T22:27:11.204Z,25.35
2023-12-04T22:30:13.581Z,25.47
2023-12-04T22:33:18.480Z,27.03
2023-12-04T22:36:20.179Z,26.45
2023-12-04T22:39:21.984Z,25.65
2023-12-04T22:42:23.670Z,25.20
2023-12-04T22:45:25.408Z,30.30
2023-12-04T22:48:27.419Z,26.80
2023-12-04T22:51:30.532Z,25.75
2023-12-04T22:54:33.154Z,29.45
2023-12-04T22:57:34.940Z,23.77
2023-12-04T23:00:39.929Z,29.73
2023-12-04T23:03:43.311Z,27.00
2023-12-04T23:06:45.209Z,28.65
2023-12-04T23:09:46.990Z,29.40
2023-12-04T23:12:50.933Z,27.40
2023-12-04T23:15:52.851Z,25.60
2023-12-04T23:18:54.967Z,26.47
2023-12-04T23:21:58.788Z,28.25
2023-12-04T23:25:00.658Z,24.40
2023-12-04T23:28:02.471Z,24.45
2023-12-04T23:31:04.425Z,27.03
2023-12-04T23:34:06.250Z,28.03
2023-12-04T23:37:08.000Z,27.85
2023-12-04T23:40:09.919Z,29.90
2023-12-04T23:43:11.638Z,26.77
2023-12-04T23:46:13.429Z,25.77
2023-12-04T23:49:15.493Z,25.60
2023-12-04T23:52:17.284Z,23.98
2023-12-04T23:55:19.111Z,26.00
2023-12-04T23:58:21.040Z,25.65
